sensor_id;sensor_type;location;lat;lon;timestamp;pressure;altitude;pressure_sealevel;temperature;humidity
46614;BME280;32338;50.430;6.806;2022-08-06T00:00:52;97561.69;;;11.54;100.00
46614;BME280;32338;50.430;6.806;2022-08-06T00:03:19;97555.03;;;11.58;100.00
46614;BME280;32338;50.430;6.806;2022-08-06T00:05:46;97569.59;;;11.62;100.00
46614;BME280;32338;50.430;6.806;2022-08-06T00:08:12;97565.47;;;11.59;100.00
46614;BME280;32338;50.430;6.806;2022-08-06T00:10:41;97566.38;;;11.66;100.00
46614;BME280;32338;50.430;6.806;2022-08-06T00:13:08;97569.41;;;11.63;100.00
46614;BME280;32338;50.430;6.806;2022-08-06T00:15:34;97565.47;;;11.59;100.00
46614;BME280;32338;50.430;6.806;2022-08-06T00:18:01;97564.50;;;11.52;100.00
46614;BME280;32338;50.430;6.806;2022-08-06T00:20:28;97561.50;;;11.55;100.00
46614;BME280;32338;50.430;6.806;2022-08-06T00:22:55;97558.03;;;11.78;100.00
46614;BME280;32338;50.430;6.806;2022-08-06T00:25:22;97561.38;;;12.03;100.00
46614;BME280;32338;50.430;6.806;2022-08-06T00:27:51;97557.00;;;11.87;99.61
46614;BME280;32338;50.430;6.806;2022-08-06T00:30:18;97567.38;;;11.65;100.00
46614;BME280;32338;50.430;6.806;2022-08-06T00:32:45;97565.53;;;11.43;100.00
46614;BME280;32338;50.430;6.806;2022-08-06T00:35:12;97563.63;;;11.28;100.00
46614;BME280;32338;50.430;6.806;2022-08-06T00:37:39;97563.19;;;11.16;100.00
46614;BME280;32338;50.430;6.806;2022-08-06T00:40:07;97557.09;;;11.08;100.00
46614;BME280;32338;50.430;6.806;2022-08-06T00:42:34;97554.31;;;11.09;100.00
46614;BME280;32338;50.430;6.806;2022-08-06T00:45:03;97558.75;;;11.09;100.00
46614;BME280;32338;50.430;6.806;2022-08-06T00:47:30;97563.25;;;11.08;100.00
46614;BME280;32338;50.430;6.806;2022-08-06T00:49:56;97564.72;;;11.02;100.00
46614;BME280;32338;50.430;6.806;2022-08-06T00:52:23;97563.25;;;11.08;100.00
46614;BME280;32338;50.430;6.806;2022-08-06T00:54:51;97560.28;;;11.03;100.00
46614;BME280;32338;50.430;6.806;2022-08-06T00:57:17;97569.50;;;11.07;100.00
46614;BME280;32338;50.430;6.806;2022-08-06T00:59:44;97564.66;;;11.19;100.00
46614;BME280;32338;50.430;6.806;2022-08-06T01:02:12;97571.66;;;11.43;100.00
46614;BME280;32338;50.430;6.806;2022-08-06T01:04:39;97570.59;;;11.52;100.00
46614;BME280;32338;50.430;6.806;2022-08-06T01:07:06;97571.47;;;11.45;100.00
46614;BME280;32338;50.430;6.806;2022-08-06T01:09:33;97576.56;;;11.23;100.00
46614;BME280;32338;50.430;6.806;2022-08-06T01:11:59;97582.53;;;11.17;100.00
46614;BME280;32338;50.430;6.806;2022-08-06T01:14:27;97581.50;;;11.26;100.00
46614;BME280;32338;50.430;6.806;2022-08-06T01:16:57;97582.09;;;11.36;100.00
46614;BME280;32338;50.430;6.806;2022-08-06T01:19:43;97586.78;;;11.26;100.00
46614;BME280;32338;50.430;6.806;2022-08-06T01:22:19;97584.88;;;11.12;100.00
46614;BME280;32338;50.430;6.806;2022-08-06T01:25:13;97579.97;;;10.92;100.00
46614;BME280;32338;50.430;6.806;2022-08-06T01:27:49;97577.88;;;10.79;100.00
46614;BME280;32338;50.430;6.806;2022-08-06T01:30:20;97569.97;;;10.63;100.00
46614;BME280;32338;50.430;6.806;2022-08-06T01:32:52;97570.66;;;10.57;100.00
46614;BME280;32338;50.430;6.806;2022-08-06T01:35:24;97583.69;;;10.58;100.00
46614;BME280;32338;50.430;6.806;2022-08-06T01:37:57;97582.84;;;10.74;100.00
46614;BME280;32338;50.430;6.806;2022-08-06T01:40:28;97587.91;;;10.84;100.00
46614;BME280;32338;50.430;6.806;2022-08-06T01:42:57;97596.47;;;11.02;100.00
46614;BME280;32338;50.430;6.806;2022-08-06T01:45:27;97590.84;;;11.06;100.00
46614;BME280;32338;50.430;6.806;2022-08-06T01:47:58;97595.09;;;11.15;100.00
46614;BME280;32338;50.430;6.806;2022-08-06T01:50:27;97589.25;;;11.28;100.00
46614;BME280;32338;50.430;6.806;2022-08-06T01:52:56;97584.81;;;11.28;100.00
46614;BME280;32338;50.430;6.806;2022-08-06T01:55:24;97595.69;;;11.33;100.00
46614;BME280;32338;50.430;6.806;2022-08-06T01:57:57;97597.22;;;11.19;100.00
46614;BME280;32338;50.430;6.806;2022-08-06T02:00:26;97598.31;;;11.33;100.00
46614;BME280;32338;50.430;6.806;2022-08-06T02:02:54;97604.59;;;11.41;100.00
46614;BME280;32338;50.430;6.806;2022-08-06T02:05:23;97607.72;;;11.44;100.00
46614;BME280;32338;50.430;6.806;2022-08-06T02:07:52;97617.63;;;11.42;100.00
46614;BME280;32338;50.430;6.806;2022-08-06T02:10:21;97612.81;;;11.46;100.00
46614;BME280;32338;50.430;6.806;2022-08-06T02:12:49;97613.59;;;11.55;100.00
46614;BME280;32338;50.430;6.806;2022-08-06T02:15:21;97619.09;;;11.53;100.00
46614;BME280;32338;50.430;6.806;2022-08-06T02:17:51;97613.78;;;11.53;100.00
46614;BME280;32338;50.430;6.806;2022-08-06T02:20:23;97613.13;;;11.51;98.17
46614;BME280;32338;50.430;6.806;2022-08-06T02:22:53;97619.78;;;11.47;98.53
46614;BME280;32338;50.430;6.806;2022-08-06T02:25:21;97623.75;;;11.43;97.36
46614;BME280;32338;50.430;6.806;2022-08-06T02:27:50;97627.56;;;11.40;98.64
46614;BME280;32338;50.430;6.806;2022-08-06T02:30:20;97636.34;;;11.41;95.89
46614;BME280;32338;50.430;6.806;2022-08-06T02:32:47;97628.41;;;11.41;96.25
46614;BME280;32338;50.430;6.806;2022-08-06T02:35:14;97631.84;;;11.41;96.88
46614;BME280;32338;50.430;6.806;2022-08-06T02:37:43;97630.75;;;11.35;96.91
46614;BME280;32338;50.430;6.806;2022-08-06T02:40:17;97626.31;;;11.19;98.14
46614;BME280;32338;50.430;6.806;2022-08-06T02:42:50;97629.28;;;11.16;99.99
46614;BME280;32338;50.430;6.806;2022-08-06T02:45:25;97627.50;;;11.17;98.22
46614;BME280;32338;50.430;6.806;2022-08-06T02:47:58;97628.13;;;11.19;96.97
46614;BME280;32338;50.430;6.806;2022-08-06T02:50:33;97634.44;;;11.18;98.32
46614;BME280;32338;50.430;6.806;2022-08-06T02:53:04;97632.13;;;11.15;97.76
46614;BME280;32338;50.430;6.806;2022-08-06T02:55:35;97627.06;;;10.89;99.04
46614;BME280;32338;50.430;6.806;2022-08-06T02:58:08;97626.75;;;10.83;100.00
46614;BME280;32338;50.430;6.806;2022-08-06T03:00:40;97633.25;;;10.40;100.00
46614;BME280;32338;50.430;6.806;2022-08-06T03:03:08;97630.22;;;10.26;100.00
46614;BME280;32338;50.430;6.806;2022-08-06T03:05:36;97638.97;;;10.18;100.00
46614;BME280;32338;50.430;6.806;2022-08-06T03:08:05;97639.81;;;10.27;100.00
46614;BME280;32338;50.430;6.806;2022-08-06T03:10:34;97634.19;;;10.05;100.00
46614;BME280;32338;50.430;6.806;2022-08-06T03:13:03;97628.91;;;9.97;100.00
46614;BME280;32338;50.430;6.806;2022-08-06T03:15:33;97630.38;;;10.00;100.00
46614;BME280;32338;50.430;6.806;2022-08-06T03:18:03;97634.16;;;9.97;100.00
46614;BME280;32338;50.430;6.806;2022-08-06T03:20:33;97635.28;;;9.70;100.00
46614;BME280;32338;50.430;6.806;2022-08-06T03:23:03;97635.06;;;9.47;100.00
46614;BME280;32338;50.430;6.806;2022-08-06T03:25:32;97629.66;;;9.65;100.00
46614;BME280;32338;50.430;6.806;2022-08-06T03:28:00;97637.13;;;9.86;100.00
46614;BME280;32338;50.430;6.806;2022-08-06T03:30:27;97642.13;;;10.05;100.00
46614;BME280;32338;50.430;6.806;2022-08-06T03:32:55;97634.38;;;10.20;100.00
46614;BME280;32338;50.430;6.806;2022-08-06T03:35:25;97638.16;;;10.26;100.00
46614;BME280;32338;50.430;6.806;2022-08-06T03:37:53;97645.91;;;10.11;100.00
46614;BME280;32338;50.430;6.806;2022-08-06T03:40:20;97640.13;;;10.07;100.00
46614;BME280;32338;50.430;6.806;2022-08-06T03:42:47;97642.28;;;10.20;100.00
46614;BME280;32338;50.430;6.806;2022-08-06T03:45:14;97647.41;;;10.30;100.00
46614;BME280;32338;50.430;6.806;2022-08-06T03:47:43;97653.69;;;10.29;100.00
46614;BME280;32338;50.430;6.806;2022-08-06T03:50:15;97651.00;;;10.13;100.00
46614;BME280;32338;50.430;6.806;2022-08-06T03:52:47;97655.31;;;10.14;100.00
46614;BME280;32338;50.430;6.806;2022-08-06T03:55:17;97656.78;;;10.16;100.00
46614;BME280;32338;50.430;6.806;2022-08-06T03:57:48;97655.00;;;10.17;100.00
46614;BME280;32338;50.430;6.806;2022-08-06T04:00:17;97655.31;;;10.22;100.00
46614;BME280;32338;50.430;6.806;2022-08-06T04:02:47;97668.53;;;10.22;100.00
46614;BME280;32338;50.430;6.806;2022-08-06T04:05:17;97664.22;;;10.21;100.00
46614;BME280;32338;50.430;6.806;2022-08-06T04:07:46;97662.91;;;10.17;100.00
46614;BME280;32338;50.430;6.806;2022-08-06T04:10:14;97665.22;;;10.12;100.00
46614;BME280;32338;50.430;6.806;2022-08-06T04:12:42;97665.22;;;10.12;100.00
46614;BME280;32338;50.430;6.806;2022-08-06T04:15:11;97662.91;;;10.09;100.00
46614;BME280;32338;50.430;6.806;2022-08-06T04:17:40;97653.19;;;10.09;100.00
46614;BME280;32338;50.430;6.806;2022-08-06T04:20:10;97660.94;;;10.11;100.00
46614;BME280;32338;50.430;6.806;2022-08-06T04:22:37;97667.47;;;9.82;100.00
46614;BME280;32338;50.430;6.806;2022-08-06T04:25:06;97664.81;;;9.73;100.00
46614;BME280;32338;50.430;6.806;2022-08-06T04:27:38;97670.25;;;9.72;100.00
46614;BME280;32338;50.430;6.806;2022-08-06T04:30:06;97672.97;;;9.46;100.00
46614;BME280;32338;50.430;6.806;2022-08-06T04:32:33;97674.22;;;9.33;100.00
46614;BME280;32338;50.430;6.806;2022-08-06T04:35:04;97681.84;;;9.10;100.00
46614;BME280;32338;50.430;6.806;2022-08-06T04:37:32;97677.44;;;9.19;100.00
46614;BME280;32338;50.430;6.806;2022-08-06T04:40:00;97676.53;;;9.36;100.00
46614;BME280;32338;50.430;6.806;2022-08-06T04:42:28;97677.88;;;9.40;100.00
46614;BME280;32338;50.430;6.806;2022-08-06T04:44:55;97682.00;;;9.43;100.00
46614;BME280;32338;50.430;6.806;2022-08-06T04:47:23;97690.50;;;9.63;100.00
46614;BME280;32338;50.430;6.806;2022-08-06T04:49:50;97683.53;;;9.54;100.00
46614;BME280;32338;50.430;6.806;2022-08-06T04:52:21;97682.03;;;9.51;100.00
46614;BME280;32338;50.430;6.806;2022-08-06T04:54:48;97684.34;;;9.20;100.00
46614;BME280;32338;50.430;6.806;2022-08-06T04:57:14;97691.66;;;9.00;100.00
46614;BME280;32338;50.430;6.806;2022-08-06T04:59:42;97695.94;;;8.74;100.00
46614;BME280;32338;50.430;6.806;2022-08-06T05:02:09;97702.06;;;8.57;100.00
46614;BME280;32338;50.430;6.806;2022-08-06T05:04:37;97697.97;;;8.44;100.00
46614;BME280;32338;50.430;6.806;2022-08-06T05:07:09;97700.72;;;8.53;100.00
46614;BME280;32338;50.430;6.806;2022-08-06T05:09:36;97701.69;;;8.52;100.00
46614;BME280;32338;50.430;6.806;2022-08-06T05:12:06;97699.59;;;8.55;100.00
46614;BME280;32338;50.430;6.806;2022-08-06T05:14:52;97711.03;;;8.64;100.00
46614;BME280;32338;50.430;6.806;2022-08-06T05:17:24;97709.53;;;8.62;100.00
46614;BME280;32338;50.430;6.806;2022-08-06T05:19:55;97715.97;;;8.67;100.00
46614;BME280;32338;50.430;6.806;2022-08-06T05:22:24;97720.25;;;8.68;100.00
46614;BME280;32338;50.430;6.806;2022-08-06T05:24:51;97722.81;;;8.78;100.00
46614;BME280;32338;50.430;6.806;2022-08-06T05:27:20;97728.81;;;8.88;100.00
46614;BME280;32338;50.430;6.806;2022-08-06T05:29:47;97717.50;;;8.96;100.00
46614;BME280;32338;50.430;6.806;2022-08-06T05:32:13;97721.50;;;9.00;100.00
46614;BME280;32338;50.430;6.806;2022-08-06T05:34:45;97721.84;;;9.05;100.00
46614;BME280;32338;50.430;6.806;2022-08-06T05:37:12;97727.38;;;9.20;100.00
46614;BME280;32338;50.430;6.806;2022-08-06T05:39:39;97729.53;;;9.25;100.00
46614;BME280;32338;50.430;6.806;2022-08-06T05:42:05;97724.25;;;9.25;100.00
46614;BME280;32338;50.430;6.806;2022-08-06T05:44:32;97736.16;;;9.29;100.00
46614;BME280;32338;50.430;6.806;2022-08-06T05:47:03;97735.31;;;9.29;100.00
46614;BME280;32338;50.430;6.806;2022-08-06T05:49:35;97730.06;;;9.29;100.00
46614;BME280;32338;50.430;6.806;2022-08-06T05:52:07;97734.06;;;9.41;100.00
46614;BME280;32338;50.430;6.806;2022-08-06T05:54:41;97732.03;;;9.61;100.00
46614;BME280;32338;50.430;6.806;2022-08-06T05:57:12;97729.50;;;9.86;100.00
46614;BME280;32338;50.430;6.806;2022-08-06T05:59:46;97732.69;;;10.06;100.00
46614;BME280;32338;50.430;6.806;2022-08-06T06:02:15;97727.59;;;10.21;100.00
46614;BME280;32338;50.430;6.806;2022-08-06T06:04:42;97727.94;;;10.26;100.00
46614;BME280;32338;50.430;6.806;2022-08-06T06:07:13;97731.44;;;10.35;100.00
46614;BME280;32338;50.430;6.806;2022-08-06T06:09:41;97745.19;;;10.47;100.00
46614;BME280;32338;50.430;6.806;2022-08-06T06:12:08;97743.19;;;10.49;100.00
46614;BME280;32338;50.430;6.806;2022-08-06T06:14:37;97741.25;;;10.59;100.00
46614;BME280;32338;50.430;6.806;2022-08-06T06:17:41;97742.06;;;10.76;100.00
46614;BME280;32338;50.430;6.806;2022-08-06T06:20:16;97738.59;;;10.84;100.00
46614;BME280;32338;50.430;6.806;2022-08-06T06:22:51;97743.88;;;10.92;100.00
46614;BME280;32338;50.430;6.806;2022-08-06T06:25:23;97747.03;;;10.96;100.00
46614;BME280;32338;50.430;6.806;2022-08-06T06:27:54;97742.19;;;11.08;100.00
46614;BME280;32338;50.430;6.806;2022-08-06T06:30:26;97745.34;;;11.19;100.00
46614;BME280;32338;50.430;6.806;2022-08-06T06:33:04;97754.09;;;11.28;100.00
46614;BME280;32338;50.430;6.806;2022-08-06T06:35:44;97740.50;;;11.40;100.00
46614;BME280;32338;50.430;6.806;2022-08-06T06:38:24;97752.69;;;11.49;100.00
46614;BME280;32338;50.430;6.806;2022-08-06T06:40:57;97746.41;;;11.50;100.00
46614;BME280;32338;50.430;6.806;2022-08-06T06:43:32;97757.19;;;11.48;100.00
46614;BME280;32338;50.430;6.806;2022-08-06T06:46:04;97758.31;;;11.54;100.00
46614;BME280;32338;50.430;6.806;2022-08-06T06:48:36;97755.16;;;11.59;100.00
46614;BME280;32338;50.430;6.806;2022-08-06T06:51:07;97751.97;;;11.72;100.00
46614;BME280;32338;50.430;6.806;2022-08-06T06:53:44;97756.38;;;11.88;100.00
46614;BME280;32338;50.430;6.806;2022-08-06T06:56:15;97767.09;;;12.03;100.00
46614;BME280;32338;50.430;6.806;2022-08-06T06:58:49;97766.03;;;12.20;100.00
46614;BME280;32338;50.430;6.806;2022-08-06T07:01:17;97764.81;;;12.31;100.00
46614;BME280;32338;50.430;6.806;2022-08-06T07:03:46;97763.41;;;12.43;100.00
46614;BME280;32338;50.430;6.806;2022-08-06T07:06:16;97765.06;;;12.44;100.00
46614;BME280;32338;50.430;6.806;2022-08-06T07:08:47;97768.34;;;12.46;100.00
46614;BME280;32338;50.430;6.806;2022-08-06T07:11:19;97763.28;;;12.37;100.00
46614;BME280;32338;50.430;6.806;2022-08-06T07:13:48;97768.28;;;12.31;100.00
46614;BME280;32338;50.430;6.806;2022-08-06T07:16:18;97778.19;;;12.38;100.00
46614;BME280;32338;50.430;6.806;2022-08-06T07:18:47;97779.84;;;12.39;100.00
46614;BME280;32338;50.430;6.806;2022-08-06T07:21:17;97779.47;;;12.42;100.00
46614;BME280;32338;50.430;6.806;2022-08-06T07:23:47;97783.75;;;12.51;100.00
46614;BME280;32338;50.430;6.806;2022-08-06T07:26:17;97785.81;;;12.64;100.00
46614;BME280;32338;50.430;6.806;2022-08-06T07:28:45;97777.81;;;12.72;100.00
46614;BME280;32338;50.430;6.806;2022-08-06T07:31:12;97781.69;;;12.85;100.00
46614;BME280;32338;50.430;6.806;2022-08-06T07:33:42;97788.66;;;13.01;97.37
46614;BME280;32338;50.430;6.806;2022-08-06T07:36:09;97784.22;;;13.01;95.41
46614;BME280;32338;50.430;6.806;2022-08-06T07:38:40;97783.63;;;13.29;96.57
46614;BME280;32338;50.430;6.806;2022-08-06T07:41:11;97795.25;;;13.28;93.39
46614;BME280;32338;50.430;6.806;2022-08-06T07:43:42;97792.78;;;13.26;94.21
46614;BME280;32338;50.430;6.806;2022-08-06T07:46:12;97790.38;;;13.40;95.10
46614;BME280;32338;50.430;6.806;2022-08-06T07:48:44;97798.94;;;13.42;93.74
46614;BME280;32338;50.430;6.806;2022-08-06T07:51:13;97787.00;;;13.61;94.12
46614;BME280;32338;50.430;6.806;2022-08-06T07:53:41;97783.31;;;13.92;96.02
46614;BME280;32338;50.430;6.806;2022-08-06T07:56:11;97786.88;;;14.14;92.28
46614;BME280;32338;50.430;6.806;2022-08-06T07:58:39;97789.16;;;14.32;87.34
46614;BME280;32338;50.430;6.806;2022-08-06T08:01:06;97786.50;;;14.54;89.12
46614;BME280;32338;50.430;6.806;2022-08-06T08:03:34;97789.16;;;14.69;81.35
46614;BME280;32338;50.430;6.806;2022-08-06T08:06:19;97792.44;;;14.71;78.85
46614;BME280;32338;50.430;6.806;2022-08-06T08:08:51;97789.09;;;14.84;80.56
46614;BME280;32338;50.430;6.806;2022-08-06T08:11:21;97783.06;;;14.97;83.64
46614;BME280;32338;50.430;6.806;2022-08-06T08:13:50;97797.88;;;15.06;79.78
46614;BME280;32338;50.430;6.806;2022-08-06T08:16:18;97797.31;;;15.11;77.94
46614;BME280;32338;50.430;6.806;2022-08-06T08:18:45;97793.69;;;15.18;80.66
46614;BME280;32338;50.430;6.806;2022-08-06T08:21:12;97797.47;;;15.31;79.92
46614;BME280;32338;50.430;6.806;2022-08-06T08:23:41;97797.88;;;15.28;76.99
46614;BME280;32338;50.430;6.806;2022-08-06T08:26:08;97799.06;;;15.03;78.54
46614;BME280;32338;50.430;6.806;2022-08-06T08:28:37;97802.75;;;14.81;78.14
46614;BME280;32338;50.430;6.806;2022-08-06T08:31:04;97803.19;;;14.63;78.19
46614;BME280;32338;50.430;6.806;2022-08-06T08:33:32;97806.00;;;14.24;78.20
46614;BME280;32338;50.430;6.806;2022-08-06T08:36:00;97806.22;;;14.08;81.19
46614;BME280;32338;50.430;6.806;2022-08-06T08:38:27;97804.47;;;14.15;78.80
46614;BME280;32338;50.430;6.806;2022-08-06T08:40:54;97803.00;;;14.27;79.60
46614;BME280;32338;50.430;6.806;2022-08-06T08:43:24;97804.94;;;14.55;77.51
46614;BME280;32338;50.430;6.806;2022-08-06T08:45:53;97806.75;;;14.70;74.65
46614;BME280;32338;50.430;6.806;2022-08-06T08:48:24;97812.91;;;14.70;76.00
46614;BME280;32338;50.430;6.806;2022-08-06T08:50:55;97813.78;;;14.78;73.81
46614;BME280;32338;50.430;6.806;2022-08-06T08:53:30;97813.19;;;14.82;75.52
46614;BME280;32338;50.430;6.806;2022-08-06T08:56:00;97815.09;;;14.88;76.69
46614;BME280;32338;50.430;6.806;2022-08-06T08:58:27;97818.91;;;14.79;76.29
46614;BME280;32338;50.430;6.806;2022-08-06T09:00:58;97809.31;;;15.00;74.38
46614;BME280;32338;50.430;6.806;2022-08-06T09:03:25;97815.13;;;15.10;72.50
46614;BME280;32338;50.430;6.806;2022-08-06T09:05:52;97811.69;;;15.16;70.44
46614;BME280;32338;50.430;6.806;2022-08-06T09:08:19;97817.91;;;15.02;69.96
46614;BME280;32338;50.430;6.806;2022-08-06T09:10:46;97813.53;;;14.94;69.73
46614;BME280;32338;50.430;6.806;2022-08-06T09:13:13;97823.22;;;14.80;69.65
46614;BME280;32338;50.430;6.806;2022-08-06T09:15:40;97815.81;;;14.75;70.88
46614;BME280;32338;50.430;6.806;2022-08-06T09:18:08;97818.41;;;14.90;71.96
46614;BME280;32338;50.430;6.806;2022-08-06T09:20:35;97817.59;;;14.90;70.42
46614;BME280;32338;50.430;6.806;2022-08-06T09:23:03;97818.59;;;14.89;71.93
46614;BME280;32338;50.430;6.806;2022-08-06T09:25:40;97822.72;;;14.91;69.75
46614;BME280;32338;50.430;6.806;2022-08-06T09:28:10;97822.63;;;15.00;71.66
46614;BME280;32338;50.430;6.806;2022-08-06T09:30:38;97818.16;;;14.85;70.63
46614;BME280;32338;50.430;6.806;2022-08-06T09:33:12;97824.44;;;14.78;69.40
46614;BME280;32338;50.430;6.806;2022-08-06T09:35:39;97822.47;;;14.86;68.36
46614;BME280;32338;50.430;6.806;2022-08-06T09:38:07;97821.56;;;15.01;69.26
46614;BME280;32338;50.430;6.806;2022-08-06T09:40:35;97816.69;;;15.26;70.33
46614;BME280;32338;50.430;6.806;2022-08-06T09:43:02;97809.09;;;15.51;68.45
46614;BME280;32338;50.430;6.806;2022-08-06T09:45:28;97814.16;;;15.75;70.49
46614;BME280;32338;50.430;6.806;2022-08-06T09:48:03;97813.91;;;15.98;67.26
46614;BME280;32338;50.430;6.806;2022-08-06T09:50:42;97812.94;;;16.05;67.11
46614;BME280;32338;50.430;6.806;2022-08-06T09:53:09;97804.44;;;16.37;70.36
46614;BME280;32338;50.430;6.806;2022-08-06T09:55:37;97805.34;;;16.64;63.64
46614;BME280;32338;50.430;6.806;2022-08-06T09:58:04;97802.75;;;16.91;68.25
46614;BME280;32338;50.430;6.806;2022-08-06T10:00:32;97810.78;;;17.05;65.26
46614;BME280;32338;50.430;6.806;2022-08-06T10:03:00;97808.28;;;16.90;61.39
46614;BME280;32338;50.430;6.806;2022-08-06T10:05:28;97816.69;;;16.86;62.86
46614;BME280;32338;50.430;6.806;2022-08-06T10:08:07;97812.75;;;16.69;61.95
46614;BME280;32338;50.430;6.806;2022-08-06T10:10:39;97813.34;;;16.58;63.58
46614;BME280;32338;50.430;6.806;2022-08-06T10:13:11;97810.69;;;16.64;66.85
46614;BME280;32338;50.430;6.806;2022-08-06T10:15:38;97809.63;;;16.45;62.14
46614;BME280;32338;50.430;6.806;2022-08-06T10:18:05;97807.31;;;16.35;62.30
46614;BME280;32338;50.430;6.806;2022-08-06T10:20:31;97807.25;;;16.15;62.62
46614;BME280;32338;50.430;6.806;2022-08-06T10:22:58;97808.13;;;15.87;62.72
46614;BME280;32338;50.430;6.806;2022-08-06T10:25:27;97802.50;;;16.11;59.43
46614;BME280;32338;50.430;6.806;2022-08-06T10:27:56;97797.31;;;16.51;60.90
46614;BME280;32338;50.430;6.806;2022-08-06T10:30:23;97803.16;;;16.81;58.95
46614;BME280;32338;50.430;6.806;2022-08-06T10:32:53;97807.47;;;16.89;59.34
46614;BME280;32338;50.430;6.806;2022-08-06T10:35:23;97807.72;;;17.08;57.27
46614;BME280;32338;50.430;6.806;2022-08-06T10:37:52;97806.69;;;17.02;56.13
46614;BME280;32338;50.430;6.806;2022-08-06T10:40:20;97801.53;;;16.94;56.54
46614;BME280;32338;50.430;6.806;2022-08-06T10:42:49;97807.44;;;16.69;56.14
46614;BME280;32338;50.430;6.806;2022-08-06T10:45:17;97795.50;;;16.65;58.94
46614;BME280;32338;50.430;6.806;2022-08-06T10:47:45;97791.25;;;16.84;59.95
46614;BME280;32338;50.430;6.806;2022-08-06T10:50:13;97800.13;;;16.98;58.16
46614;BME280;32338;50.430;6.806;2022-08-06T10:52:41;97789.84;;;16.95;58.19
46614;BME280;32338;50.430;6.806;2022-08-06T10:55:09;97789.03;;;17.21;60.47
46614;BME280;32338;50.430;6.806;2022-08-06T10:57:38;97780.19;;;17.54;62.24
46614;BME280;32338;50.430;6.806;2022-08-06T11:00:08;97791.06;;;17.53;54.39
46614;BME280;32338;50.430;6.806;2022-08-06T11:02:40;97783.25;;;17.58;58.22
46614;BME280;32338;50.430;6.806;2022-08-06T11:05:12;97787.97;;;17.69;53.81
46614;BME280;32338;50.430;6.806;2022-08-06T11:08:02;97780.34;;;17.73;54.91
46614;BME280;32338;50.430;6.806;2022-08-06T11:10:52;97773.13;;;17.87;50.43
46614;BME280;32338;50.430;6.806;2022-08-06T11:13:28;97778.03;;;17.96;50.05
46614;BME280;32338;50.430;6.806;2022-08-06T11:15:57;97772.34;;;17.73;48.83
46614;BME280;32338;50.430;6.806;2022-08-06T11:18:24;97775.00;;;17.73;53.08
46614;BME280;32338;50.430;6.806;2022-08-06T11:20:52;97763.41;;;18.06;55.16
46614;BME280;32338;50.430;6.806;2022-08-06T11:23:31;97770.19;;;18.08;50.06
46614;BME280;32338;50.430;6.806;2022-08-06T11:26:01;97767.38;;;18.35;49.91
46614;BME280;32338;50.430;6.806;2022-08-06T11:28:57;97756.41;;;18.82;51.03
46614;BME280;32338;50.430;6.806;2022-08-06T11:31:43;97767.50;;;18.86;49.92
46614;BME280;32338;50.430;6.806;2022-08-06T11:34:14;97761.09;;;18.93;50.32
46614;BME280;32338;50.430;6.806;2022-08-06T11:36:46;97762.19;;;18.79;48.40
46614;BME280;32338;50.430;6.806;2022-08-06T11:39:14;97766.94;;;18.77;51.93
46614;BME280;32338;50.430;6.806;2022-08-06T11:41:46;97759.56;;;18.72;50.02
46614;BME280;32338;50.430;6.806;2022-08-06T11:44:14;97767.38;;;18.42;49.90
46614;BME280;32338;50.430;6.806;2022-08-06T11:46:45;97762.16;;;18.54;50.84
46614;BME280;32338;50.430;6.806;2022-08-06T11:49:18;97752.09;;;18.49;48.57
46614;BME280;32338;50.430;6.806;2022-08-06T11:51:47;97757.88;;;18.46;50.69
46614;BME280;32338;50.430;6.806;2022-08-06T11:54:17;97758.59;;;18.60;50.65
46614;BME280;32338;50.430;6.806;2022-08-06T11:57:18;97750.94;;;19.02;49.88
46614;BME280;32338;50.430;6.806;2022-08-06T12:02:59;97755.22;;;19.54;50.14
46614;BME280;32338;50.430;6.806;2022-08-06T12:05:41;97757.47;;;19.57;50.98
46614;BME280;32338;50.430;6.806;2022-08-06T12:08:26;97764.00;;;19.61;48.67
46614;BME280;32338;50.430;6.806;2022-08-06T12:14:04;97750.59;;;20.35;48.53
46614;BME280;32338;50.430;6.806;2022-08-06T12:16:37;97750.19;;;20.01;43.48
46614;BME280;32338;50.430;6.806;2022-08-06T12:19:12;97746.53;;;20.14;44.43
46614;BME280;32338;50.430;6.806;2022-08-06T12:21:40;97750.66;;;19.98;44.12
46614;BME280;32338;50.430;6.806;2022-08-06T12:24:08;97744.66;;;19.77;44.10
46614;BME280;32338;50.430;6.806;2022-08-06T12:26:36;97749.25;;;19.96;47.84
46614;BME280;32338;50.430;6.806;2022-08-06T12:29:07;97749.75;;;20.65;45.20
46614;BME280;32338;50.430;6.806;2022-08-06T12:31:36;97744.50;;;20.58;44.44
46614;BME280;32338;50.430;6.806;2022-08-06T12:34:05;97748.75;;;20.78;46.18
46614;BME280;32338;50.430;6.806;2022-08-06T12:36:34;97732.38;;;20.68;44.37
46614;BME280;32338;50.430;6.806;2022-08-06T12:39:04;97737.63;;;21.05;44.13
46614;BME280;32338;50.430;6.806;2022-08-06T12:41:35;97739.66;;;20.49;41.92
46614;BME280;32338;50.430;6.806;2022-08-06T12:44:02;97730.16;;;20.34;44.90
46614;BME280;32338;50.430;6.806;2022-08-06T12:46:29;97732.22;;;20.93;42.66
46614;BME280;32338;50.430;6.806;2022-08-06T12:48:59;97717.66;;;21.36;43.16
46614;BME280;32338;50.430;6.806;2022-08-06T12:51:30;97727.91;;;20.92;41.53
46614;BME280;32338;50.430;6.806;2022-08-06T12:53:59;97731.63;;;20.61;43.97
46614;BME280;32338;50.430;6.806;2022-08-06T12:56:28;97736.44;;;21.01;46.92
46614;BME280;32338;50.430;6.806;2022-08-06T12:58:56;97729.91;;;20.54;40.84
46614;BME280;32338;50.430;6.806;2022-08-06T13:01:28;97725.03;;;20.63;41.03
46614;BME280;32338;50.430;6.806;2022-08-06T13:03:57;97714.81;;;20.72;42.75
46614;BME280;32338;50.430;6.806;2022-08-06T13:06:32;97725.69;;;20.89;42.36
46614;BME280;32338;50.430;6.806;2022-08-06T13:09:04;97710.97;;;20.92;40.55
46614;BME280;32338;50.430;6.806;2022-08-06T13:11:32;97705.38;;;20.51;41.55
46614;BME280;32338;50.430;6.806;2022-08-06T13:14:07;97713.34;;;20.27;42.70
46614;BME280;32338;50.430;6.806;2022-08-06T13:16:43;97716.56;;;20.48;43.12